Sandy Springs, Georgia
Current Conditions -  °F | °C
As of 10:53 AM on Thursday 30 Oct 2014 (Local Time) from KPDK Reporting Station
Clear Clear  
Wind Chill: 59°   Ceiling: Unl
Heat Index: 59°   Visibility: 10mi
Dew Point: 38°   Wind: 6mph
Humidity: 46%   Direction: NA
Pressure: 30.1"   Gusts: NA
Location:  33.92°N, 84.38°W
Report Text: KPDK 301453Z VRB05KT 10SM CLR 15/03 A3010 RMK AO2 SLP190 T01500033 50007
Loading
Personal Weather Stations






























Interactive Weather Map
Tropical Storm Tracking
New forecast layout! Learn more

10-Day Weather Forecast

Advertisements
Track Severe Weather on mobile